Time;durP1;ratioP1;P1;durP2;ratioP2;P2;SDS_P1;SDS_P2;PMS_P1;PMS_P2;Temp;Humidity;BMP_temperature;BMP_pressure;BME280_temperature;BME280_humidity;BME280_pressure;Samples;Min_cycle;Max_cycle;Signal;HPM_P1;HPM_P2
2022/01/28 00:00:29;;;;;;;158.43;69.80;;;;;;;;;;4420261;32;20297;-53
2022/01/28 00:05:24;;;;;;;176.37;72.67;;;;;;;;;;4433925;32;20239;-54
2022/01/28 00:07:51;;;;;;;178.90;77.10;;;;;;;;;;4434161;32;20291;-55
2022/01/28 00:10:19;;;;;;;158.10;65.23;;;;;;;;;;4433750;32;20354;-53
2022/01/28 00:16:09;;;;;;;153.93;67.23;;;;;;;;;;4433455;32;20285;-55
2022/01/28 00:36:28;;;;;;;165.47;69.23;;;;;;;;;;4418347;32;20585;-54
2022/01/28 00:38:00;;;;;;;133.73;58.07;;;;;;;;;;4419799;32;20564;-54
2022/01/28 00:40:14;;;;;;;133.60;61.00;;;;;;;;;;4432913;32;20358;-54
2022/01/28 00:42:39;;;;;;;160.90;69.63;;;;;;;;;;4419455;32;20217;-54
2022/01/28 00:45:05;;;;;;;153.87;65.90;;;;;;;;;;4419333;32;20283;-54
2022/01/28 00:47:31;;;;;;;146.07;67.77;;;;;;;;;;4433483;32;20276;-55
2022/01/28 00:49:56;;;;;;;142.60;66.13;;;;;;;;;;4433132;32;20620;-54
2022/01/28 00:52:22;;;;;;;136.67;66.10;;;;;;;;;;4433241;32;20368;-53
2022/01/28 00:54:47;;;;;;;155.67;66.47;;;;;;;;;;4423064;32;20335;-54
2022/01/28 00:57:12;;;;;;;154.77;66.77;;;;;;;;;;4418018;32;20867;-53
2022/01/28 00:59:38;;;;;;;164.63;74.07;;;;;;;;;;4416888;32;20288;-53
2022/01/28 01:02:04;;;;;;;151.13;69.70;;;;;;;;;;4416535;32;20355;-53
2022/01/28 01:04:29;;;;;;;176.63;72.17;;;;;;;;;;4430335;32;20306;-53
2022/01/28 01:06:56;;;;;;;147.90;67.97;;;;;;;;;;4433104;32;20252;-53
2022/01/28 01:09:21;;;;;;;134.63;60.13;;;;;;;;;;4432984;32;20279;-55
2022/01/28 01:11:47;;;;;;;118.13;54.03;;;;;;;;;;4432954;32;20254;-54
2022/01/28 01:14:12;;;;;;;112.23;55.60;;;;;;;;;;4432976;32;20235;-53
2022/01/28 01:19:25;;;;;;;109.70;51.80;;;;;;;;;;4432986;32;20643;-54
2022/01/28 01:21:56;;;;;;;92.07;47.50;;;;;;;;;;4432626;32;20212;-53
2022/01/28 01:24:24;;;;;;;95.17;47.70;;;;;;;;;;4432880;32;20185;-54
2022/01/28 01:26:49;;;;;;;111.23;52.77;;;;;;;;;;4432676;32;20692;-55
2022/01/28 01:29:18;;;;;;;94.77;49.07;;;;;;;;;;4406036;32;20296;-53
2022/01/28 01:31:44;;;;;;;104.27;49.80;;;;;;;;;;4418373;32;20330;-53
2022/01/28 01:34:19;;;;;;;99.87;47.57;;;;;;;;;;4432264;32;20338;-53
2022/01/28 01:36:45;;;;;;;97.50;45.03;;;;;;;;;;4432492;32;20294;-55
2022/01/28 01:39:15;;;;;;;88.97;42.90;;;;;;;;;;4432184;32;20355;-56
2022/01/28 01:41:47;;;;;;;107.43;48.93;;;;;;;;;;4418454;32;20228;-55
2022/01/28 01:44:26;;;;;;;104.23;49.10;;;;;;;;;;4432067;32;20205;-54
2022/01/28 01:52:42;;;;;;;93.60;46.87;;;;;;;;;;4432468;32;20283;-53
2022/01/28 01:55:08;;;;;;;103.43;45.10;;;;;;;;;;4419872;32;20284;-53
2022/01/28 01:57:34;;;;;;;87.30;45.67;;;;;;;;;;4416742;32;20306;-53
2022/01/28 02:00:00;;;;;;;96.83;44.50;;;;;;;;;;4416890;32;20708;-54
2022/01/28 02:02:25;;;;;;;83.63;43.20;;;;;;;;;;4416857;32;20357;-53
2022/01/28 02:04:51;;;;;;;81.57;44.40;;;;;;;;;;4416814;32;20304;-54
2022/01/28 02:07:17;;;;;;;95.23;46.17;;;;;;;;;;4416559;32;20645;-54
2022/01/28 02:09:42;;;;;;;106.83;48.00;;;;;;;;;;4416641;32;20310;-54
2022/01/28 02:12:09;;;;;;;86.13;44.80;;;;;;;;;;4416597;32;20208;-54
2022/01/28 02:14:35;;;;;;;76.60;39.33;;;;;;;;;;4416784;32;20672;-53
2022/01/28 02:17:02;;;;;;;79.77;41.17;;;;;;;;;;4431689;32;20236;-53
2022/01/28 02:19:28;;;;;;;83.43;40.20;;;;;;;;;;4431689;32;20379;-55
2022/01/28 02:21:53;;;;;;;81.83;37.20;;;;;;;;;;4431603;32;20311;-54
2022/01/28 02:24:27;;;;;;;105.93;50.03;;;;;;;;;;4431792;32;20276;-52
2022/01/28 02:26:53;;;;;;;75.17;39.90;;;;;;;;;;4417645;32;20217;-53
2022/01/28 02:29:27;;;;;;;72.83;33.77;;;;;;;;;;4431765;32;20608;-54
2022/01/28 02:31:53;;;;;;;72.17;35.50;;;;;;;;;;4431290;32;20223;-54
2022/01/28 02:34:19;;;;;;;75.53;38.20;;;;;;;;;;4431321;32;20746;-52
2022/01/28 02:36:44;;;;;;;86.80;42.60;;;;;;;;;;4431384;32;20225;-54
2022/01/28 02:39:11;;;;;;;84.70;42.37;;;;;;;;;;4431868;32;20289;-55
2022/01/28 02:41:40;;;;;;;66.67;33.73;;;;;;;;;;4431582;32;20644;-54
2022/01/28 02:44:25;;;;;;;89.70;41.27;;;;;;;;;;4431311;32;20212;-53
2022/01/28 02:46:57;;;;;;;115.70;49.53;;;;;;;;;;4431523;32;20310;-53
2022/01/28 02:49:26;;;;;;;84.07;39.80;;;;;;;;;;4431975;32;20838;-53
2022/01/28 02:51:53;;;;;;;84.33;39.73;;;;;;;;;;4431354;32;20233;-53
2022/01/28 02:54:19;;;;;;;77.27;38.77;;;;;;;;;;4431412;32;20205;-55
2022/01/28 02:56:53;;;;;;;91.70;41.43;;;;;;;;;;4431423;32;20361;-54
2022/01/28 02:59:19;;;;;;;89.67;42.43;;;;;;;;;;4431553;32;20249;-54
2022/01/28 03:01:45;;;;;;;107.57;46.40;;;;;;;;;;4431677;32;20256;-55
2022/01/28 03:04:19;;;;;;;104.63;46.27;;;;;;;;;;4431531;32;20340;-54
2022/01/28 03:06:45;;;;;;;103.37;46.50;;;;;;;;;;4417531;32;20292;-55
2022/01/28 03:09:18;;;;;;;96.97;43.90;;;;;;;;;;4431308;32;20562;-53
2022/01/28 03:11:46;;;;;;;99.80;43.40;;;;;;;;;;4431271;32;20406;-54
2022/01/28 03:17:04;;;;;;;94.23;42.93;;;;;;;;;;4423498;32;20244;-54
2022/01/28 03:19:43;;;;;;;102.30;44.57;;;;;;;;;;4431048;32;20264;-53
2022/01/28 03:22:09;;;;;;;82.37;39.93;;;;;;;;;;4417583;32;20259;-53
2022/01/28 03:24:34;;;;;;;90.13;43.03;;;;;;;;;;4417109;32;20635;-53
2022/01/28 03:27:06;;;;;;;95.30;44.43;;;;;;;;;;4430757;32;20286;-55
2022/01/28 03:29:31;;;;;;;135.90;57.57;;;;;;;;;;4431268;32;20203;-55
2022/01/28 03:31:57;;;;;;;126.23;58.73;;;;;;;;;;4417598;32;20584;-53
2022/01/28 03:34:22;;;;;;;125.00;57.73;;;;;;;;;;4431234;32;20653;-55
2022/01/28 03:36:50;;;;;;;121.37;55.53;;;;;;;;;;4431257;32;20241;-54
2022/01/28 03:39:16;;;;;;;114.33;52.63;;;;;;;;;;4417153;32;20224;-55
2022/01/28 03:41:41;;;;;;;111.87;50.67;;;;;;;;;;4431046;32;20588;-53
2022/01/28 03:44:07;;;;;;;95.20;47.63;;;;;;;;;;4431663;32;20256;-53
2022/01/28 03:46:32;;;;;;;108.97;51.33;;;;;;;;;;4416962;32;20269;-54
2022/01/28 03:48:58;;;;;;;112.17;52.90;;;;;;;;;;4431147;32;20276;-53
2022/01/28 03:51:24;;;;;;;92.90;48.60;;;;;;;;;;4414985;32;20323;-53
2022/01/28 03:53:50;;;;;;;120.30;52.83;;;;;;;;;;4427070;32;20306;-53
2022/01/28 03:56:16;;;;;;;116.20;49.40;;;;;;;;;;4415145;32;20590;-54
2022/01/28 03:58:44;;;;;;;119.93;53.30;;;;;;;;;;4415585;32;20221;-53
2022/01/28 04:01:21;;;;;;;103.27;44.53;;;;;;;;;;4415816;32;20279;-54
2022/01/28 04:11:50;;;;;;;96.60;49.00;;;;;;;;;;4418080;32;20243;-55
2022/01/28 04:14:30;;;;;;;89.90;40.63;;;;;;;;;;4418241;32;20245;-54
2022/01/28 04:19:40;;;;;;;100.60;44.60;;;;;;;;;;4433244;32;20334;-53
2022/01/28 04:22:05;;;;;;;93.93;44.83;;;;;;;;;;4419377;32;20739;-55
2022/01/28 04:24:31;;;;;;;88.57;42.43;;;;;;;;;;4430590;32;20345;-54
2022/01/28 04:26:58;;;;;;;78.87;39.30;;;;;;;;;;4404405;32;20420;-53
2022/01/28 04:29:24;;;;;;;84.60;38.67;;;;;;;;;;4417913;32;20363;-55
2022/01/28 04:31:49;;;;;;;84.67;39.53;;;;;;;;;;4416783;32;20617;-54
2022/01/28 04:34:17;;;;;;;89.53;39.17;;;;;;;;;;4418118;32;20343;-54
2022/01/28 04:36:53;;;;;;;97.87;42.97;;;;;;;;;;4418362;32;20568;-53
2022/01/28 04:50:07;;;;;;;139.30;61.53;;;;;;;;;;4417962;32;20222;-54
2022/01/28 04:55:35;;;;;;;163.30;68.50;;;;;;;;;;4417662;32;20618;-52
2022/01/28 05:14:44;;;;;;;137.43;60.37;;;;;;;;;;4432265;32;20673;-54
2022/01/28 05:27:22;;;;;;;144.03;61.23;;;;;;;;;;4432270;32;20265;-54
2022/01/28 05:29:48;;;;;;;121.27;64.17;;;;;;;;;;4433013;32;20247;-54
2022/01/28 05:32:13;;;;;;;134.80;65.17;;;;;;;;;;4418270;32;20466;-53
2022/01/28 05:34:40;;;;;;;149.23;73.67;;;;;;;;;;4418305;32;20345;-53
2022/01/28 05:37:07;;;;;;;142.13;71.70;;;;;;;;;;4418155;32;20224;-54
2022/01/28 05:39:33;;;;;;;135.93;69.33;;;;;;;;;;4432944;32;20607;-54
2022/01/28 05:41:58;;;;;;;133.87;64.80;;;;;;;;;;4418421;32;20611;-53
2022/01/28 05:44:25;;;;;;;149.17;67.70;;;;;;;;;;4432267;32;20303;-54
2022/01/28 05:46:52;;;;;;;173.47;76.13;;;;;;;;;;4431953;32;20221;-54
2022/01/28 05:49:18;;;;;;;158.23;77.80;;;;;;;;;;4432198;32;20220;-54
2022/01/28 05:51:44;;;;;;;149.67;71.47;;;;;;;;;;4432016;32;20320;-53
2022/01/28 05:54:10;;;;;;;143.70;70.53;;;;;;;;;;4428165;32;20364;-56
2022/01/28 05:56:36;;;;;;;168.03;72.97;;;;;;;;;;4429766;32;20217;-53
2022/01/28 05:59:02;;;;;;;171.10;86.90;;;;;;;;;;4431377;32;20401;-55
2022/01/28 06:01:28;;;;;;;183.30;95.87;;;;;;;;;;4431864;32;20217;-54
2022/01/28 06:03:54;;;;;;;192.30;94.93;;;;;;;;;;4422953;32;20654;-55
2022/01/28 06:06:21;;;;;;;190.53;96.03;;;;;;;;;;4412996;32;20259;-53
2022/01/28 06:08:51;;;;;;;190.33;93.60;;;;;;;;;;4408867;32;20233;-54
2022/01/28 06:11:18;;;;;;;188.53;91.97;;;;;;;;;;4414135;32;20256;-54
2022/01/28 06:13:44;;;;;;;163.90;81.83;;;;;;;;;;4431977;32;20779;-54
2022/01/28 06:16:10;;;;;;;171.97;80.43;;;;;;;;;;4416812;32;20303;-53
2022/01/28 06:18:37;;;;;;;185.23;83.90;;;;;;;;;;4415202;32;20239;-53
2022/01/28 06:21:03;;;;;;;177.00;85.90;;;;;;;;;;4417515;32;20408;-54
2022/01/28 06:23:30;;;;;;;178.80;81.47;;;;;;;;;;4425971;32;20672;-53
2022/01/28 06:25:55;;;;;;;212.03;91.53;;;;;;;;;;4431914;32;20217;-54
2022/01/28 06:28:21;;;;;;;179.57;84.07;;;;;;;;;;4431997;32;20327;-54
2022/01/28 06:30:46;;;;;;;193.90;89.23;;;;;;;;;;4431966;32;20348;-53
2022/01/28 06:33:13;;;;;;;190.30;94.63;;;;;;;;;;4417184;32;20275;-53
2022/01/28 06:35:40;;;;;;;223.97;112.73;;;;;;;;;;4431495;32;20225;-53
2022/01/28 06:38:06;;;;;;;246.40;121.27;;;;;;;;;;4417421;32;20213;-55
2022/01/28 06:40:31;;;;;;;275.67;130.60;;;;;;;;;;4418302;32;20224;-53
2022/01/28 06:42:57;;;;;;;304.53;147.47;;;;;;;;;;4429947;32;20261;-55
2022/01/28 06:45:22;;;;;;;340.87;152.90;;;;;;;;;;4429009;32;20225;-53
2022/01/28 06:47:48;;;;;;;308.73;143.40;;;;;;;;;;4415422;32;20307;-54
2022/01/28 06:50:13;;;;;;;323.47;156.17;;;;;;;;;;4428376;32;20335;-54
2022/01/28 06:52:41;;;;;;;298.13;144.10;;;;;;;;;;4427401;32;20675;-53
2022/01/28 06:55:06;;;;;;;291.67;146.20;;;;;;;;;;4413868;32;20269;-53
2022/01/28 06:57:32;;;;;;;316.73;154.93;;;;;;;;;;4426779;32;20856;-55
2022/01/28 06:59:58;;;;;;;299.13;156.77;;;;;;;;;;4415818;32;20318;-54
2022/01/28 07:02:24;;;;;;;328.77;153.27;;;;;;;;;;4399649;32;20336;-53
2022/01/28 07:04:50;;;;;;;327.13;157.63;;;;;;;;;;4414957;32;20316;-53
2022/01/28 07:07:15;;;;;;;334.60;160.53;;;;;;;;;;4415810;32;20307;-55
2022/01/28 07:09:41;;;;;;;311.93;159.93;;;;;;;;;;4428544;32;20310;-54
2022/01/28 07:12:07;;;;;;;283.27;146.57;;;;;;;;;;4398731;32;20263;-54
2022/01/28 07:14:32;;;;;;;327.50;161.27;;;;;;;;;;4414308;32;20309;-53
2022/01/28 07:16:58;;;;;;;307.60;153.57;;;;;;;;;;4413990;32;20247;-53
2022/01/28 07:19:23;;;;;;;307.20;149.67;;;;;;;;;;4400091;32;20358;-55
2022/01/28 07:21:49;;;;;;;301.97;152.93;;;;;;;;;;4414022;32;20668;-53
2022/01/28 07:24:15;;;;;;;309.70;151.60;;;;;;;;;;4414089;32;20648;-54
2022/01/28 07:26:41;;;;;;;288.13;148.67;;;;;;;;;;4415657;32;20253;-53
2022/01/28 07:29:09;;;;;;;266.00;141.00;;;;;;;;;;4402273;32;20345;-53
2022/01/28 07:31:35;;;;;;;304.97;148.20;;;;;;;;;;4416294;32;20327;-55
2022/01/28 07:34:01;;;;;;;268.73;137.13;;;;;;;;;;4402868;32;20241;-55
2022/01/28 07:36:27;;;;;;;238.30;124.67;;;;;;;;;;4416600;32;20274;-55
2022/01/28 07:38:52;;;;;;;231.73;118.30;;;;;;;;;;4419071;32;20315;-53
2022/01/28 07:41:17;;;;;;;190.90;98.43;;;;;;;;;;4419268;32;20217;-55
2022/01/28 07:43:43;;;;;;;192.00;96.23;;;;;;;;;;4419861;32;20436;-53
2022/01/28 07:46:09;;;;;;;162.93;84.53;;;;;;;;;;4418727;32;20286;-54
2022/01/28 07:48:34;;;;;;;147.50;80.50;;;;;;;;;;4429141;32;20653;-53
2022/01/28 07:50:59;;;;;;;161.23;78.13;;;;;;;;;;4434549;32;20216;-54
2022/01/28 07:53:25;;;;;;;151.73;81.10;;;;;;;;;;4434623;32;20390;-54
2022/01/28 07:55:50;;;;;;;149.53;78.70;;;;;;;;;;4434356;32;20256;-55
2022/01/28 07:58:16;;;;;;;158.63;74.90;;;;;;;;;;4433911;32;20344;-54
2022/01/28 08:00:42;;;;;;;150.87;74.73;;;;;;;;;;4419408;32;20248;-55
2022/01/28 08:03:08;;;;;;;134.07;70.20;;;;;;;;;;4419158;32;20292;-56
2022/01/28 08:05:33;;;;;;;140.17;68.20;;;;;;;;;;4418974;32;20217;-54
2022/01/28 08:08:04;;;;;;;126.10;64.53;;;;;;;;;;4419154;32;20358;-55
2022/01/28 08:10:29;;;;;;;99.40;48.37;;;;;;;;;;4419167;32;20644;-53
2022/01/28 08:12:55;;;;;;;57.60;28.67;;;;;;;;;;4419123;32;20310;-53
2022/01/28 08:15:22;;;;;;;94.57;48.13;;;;;;;;;;4419068;32;20233;-53
2022/01/28 08:17:48;;;;;;;114.27;60.20;;;;;;;;;;4419140;32;20229;-53
2022/01/28 08:20:14;;;;;;;201.23;92.67;;;;;;;;;;4417523;32;20300;-52
2022/01/28 08:22:47;;;;;;;195.57;97.87;;;;;;;;;;4418859;32;20708;-53
2022/01/28 08:25:13;;;;;;;221.73;106.73;;;;;;;;;;4418439;32;20271;-53
2022/01/28 08:27:38;;;;;;;204.73;102.17;;;;;;;;;;4418800;32;20272;-54
2022/01/28 08:30:04;;;;;;;218.33;110.97;;;;;;;;;;4418666;32;20286;-52
2022/01/28 08:32:30;;;;;;;251.17;120.03;;;;;;;;;;4418952;32;20696;-55
2022/01/28 08:34:55;;;;;;;245.40;123.50;;;;;;;;;;4418973;32;20275;-54
2022/01/28 08:37:21;;;;;;;209.47;113.03;;;;;;;;;;4418379;32;20624;-54
2022/01/28 08:39:46;;;;;;;228.33;120.70;;;;;;;;;;4418551;32;20381;-54
2022/01/28 08:42:14;;;;;;;235.50;118.33;;;;;;;;;;4418376;32;20529;-54
2022/01/28 08:44:40;;;;;;;233.57;119.73;;;;;;;;;;4417279;32;20221;-55
2022/01/28 08:47:05;;;;;;;206.37;111.83;;;;;;;;;;4418720;32;20368;-55
2022/01/28 08:49:31;;;;;;;208.07;109.37;;;;;;;;;;4417649;32;20302;-53
2022/01/28 08:51:58;;;;;;;217.13;115.43;;;;;;;;;;4418697;32;20316;-53
2022/01/28 08:54:23;;;;;;;203.03;108.57;;;;;;;;;;4417420;32;20233;-53
2022/01/28 08:56:48;;;;;;;227.90;113.03;;;;;;;;;;4418366;32;20339;-53
2022/01/28 08:59:14;;;;;;;187.33;93.17;;;;;;;;;;4418301;32;20648;-52
2022/01/28 09:01:39;;;;;;;179.90;94.17;;;;;;;;;;4418437;32;20251;-53
2022/01/28 09:04:05;;;;;;;164.77;89.17;;;;;;;;;;4418287;32;20646;-54
2022/01/28 09:06:30;;;;;;;169.30;93.10;;;;;;;;;;4418500;32;20301;-54
2022/01/28 09:08:59;;;;;;;187.23;91.80;;;;;;;;;;4418624;32;20648;-54
2022/01/28 09:13:52;;;;;;;147.50;75.10;;;;;;;;;;4418623;32;20205;-54
2022/01/28 09:16:21;;;;;;;146.73;77.57;;;;;;;;;;4418862;32;20696;-53
2022/01/28 09:18:46;;;;;;;145.53;77.53;;;;;;;;;;4417653;32;20270;-54
2022/01/28 09:21:12;;;;;;;140.20;77.30;;;;;;;;;;4418558;32;20217;-54
2022/01/28 09:23:37;;;;;;;143.37;79.40;;;;;;;;;;4417217;32;20835;-55
2022/01/28 09:26:03;;;;;;;163.13;81.13;;;;;;;;;;4416828;32;20316;-54
2022/01/28 09:28:28;;;;;;;150.70;79.87;;;;;;;;;;4418467;32;20272;-55
2022/01/28 09:30:54;;;;;;;140.47;76.60;;;;;;;;;;4418102;32;20292;-54
2022/01/28 09:33:19;;;;;;;146.80;79.17;;;;;;;;;;4416637;32;20340;-53
2022/01/28 09:35:45;;;;;;;161.73;82.60;;;;;;;;;;4417944;32;20323;-54
2022/01/28 09:38:11;;;;;;;155.23;80.23;;;;;;;;;;4418290;32;20284;-55
2022/01/28 09:40:37;;;;;;;169.90;80.33;;;;;;;;;;4425231;32;20225;-56
2022/01/28 09:43:05;;;;;;;149.80;77.83;;;;;;;;;;4419661;32;20358;-57
2022/01/28 09:45:31;;;;;;;159.67;78.10;;;;;;;;;;4433225;32;20256;-55
2022/01/28 09:47:56;;;;;;;169.77;83.87;;;;;;;;;;4433588;32;20770;-55
2022/01/28 09:50:30;;;;;;;160.67;79.43;;;;;;;;;;4432917;32;20676;-55
2022/01/28 09:52:57;;;;;;;159.50;82.70;;;;;;;;;;4433236;32;20225;-54
2022/01/28 09:55:24;;;;;;;163.37;80.10;;;;;;;;;;4432858;32;20472;-54
2022/01/28 09:57:54;;;;;;;145.60;76.10;;;;;;;;;;4432997;32;20247;-55
2022/01/28 10:00:22;;;;;;;160.93;86.70;;;;;;;;;;4432197;32;20225;-55
2022/01/28 10:03:01;;;;;;;185.87;98.20;;;;;;;;;;4430554;32;20643;-56
2022/01/28 10:05:28;;;;;;;180.37;94.07;;;;;;;;;;4417352;32;20305;-55
2022/01/28 10:08:06;;;;;;;177.77;96.07;;;;;;;;;;4415945;32;20306;-56
2022/01/28 10:10:42;;;;;;;150.23;82.63;;;;;;;;;;4416899;32;20271;-56
2022/01/28 10:13:10;;;;;;;146.23;81.07;;;;;;;;;;4416974;32;20192;-56
2022/01/28 10:15:36;;;;;;;148.07;77.87;;;;;;;;;;4417224;32;20675;-55
2022/01/28 10:18:02;;;;;;;196.93;93.43;;;;;;;;;;4416938;32;20284;-56
2022/01/28 10:20:28;;;;;;;124.87;66.83;;;;;;;;;;4417234;32;20568;-55
2022/01/28 10:22:55;;;;;;;105.23;52.10;;;;;;;;;;4417073;32;20303;-57
2022/01/28 10:25:27;;;;;;;103.33;55.67;;;;;;;;;;4416571;32;20244;-55
2022/01/28 10:28:06;;;;;;;102.83;55.87;;;;;;;;;;4417006;32;20178;-57
2022/01/28 10:30:42;;;;;;;104.50;57.50;;;;;;;;;;4415677;32;20307;-55
2022/01/28 10:33:17;;;;;;;142.20;85.70;;;;;;;;;;4416924;32;20235;-56
2022/01/28 10:35:56;;;;;;;78.17;42.53;;;;;;;;;;4416671;32;20321;-55
2022/01/28 10:38:35;;;;;;;72.17;38.23;;;;;;;;;;4432152;32;20525;-55
2022/01/28 10:41:14;;;;;;;65.80;39.33;;;;;;;;;;4417929;32;20221;-56
2022/01/28 10:43:52;;;;;;;60.83;33.73;;;;;;;;;;4432354;32;20223;-57
2022/01/28 10:46:33;;;;;;;65.00;33.37;;;;;;;;;;4418073;32;20313;-56
2022/01/28 10:49:01;;;;;;;58.63;26.40;;;;;;;;;;4417993;32;20238;-56
2022/01/28 10:51:42;;;;;;;49.50;26.17;;;;;;;;;;4432040;32;20232;-56
2022/01/28 10:54:10;;;;;;;44.67;26.57;;;;;;;;;;4432216;32;20252;-55
2022/01/28 10:56:49;;;;;;;52.63;27.60;;;;;;;;;;4431878;32;20216;-57
2022/01/28 10:59:17;;;;;;;52.67;29.17;;;;;;;;;;4425028;32;20272;-55
2022/01/28 11:01:44;;;;;;;63.67;35.57;;;;;;;;;;4415541;32;20242;-54
2022/01/28 11:04:11;;;;;;;67.30;36.93;;;;;;;;;;4416169;32;20522;-56
2022/01/28 11:06:38;;;;;;;60.67;37.27;;;;;;;;;;4416306;32;20244;-55
2022/01/28 11:09:04;;;;;;;68.77;34.17;;;;;;;;;;4416175;32;20345;-56
2022/01/28 11:11:30;;;;;;;63.23;35.00;;;;;;;;;;4414871;32;20673;-56
2022/01/28 11:13:57;;;;;;;60.47;30.13;;;;;;;;;;4416660;32;20206;-54
2022/01/28 11:16:22;;;;;;;65.60;40.50;;;;;;;;;;4402498;32;20265;-55
2022/01/28 11:18:48;;;;;;;70.57;40.73;;;;;;;;;;4416467;32;20367;-55
2022/01/28 11:21:17;;;;;;;67.90;36.67;;;;;;;;;;4416235;32;20324;-55
2022/01/28 11:23:51;;;;;;;68.90;39.50;;;;;;;;;;4416420;32;20262;-55
2022/01/28 11:26:26;;;;;;;85.77;47.10;;;;;;;;;;4416391;32;20252;-55
2022/01/28 11:28:56;;;;;;;103.63;57.87;;;;;;;;;;4418145;32;20668;-55
2022/01/28 11:31:54;;;;;;;107.53;58.73;;;;;;;;;;4422991;32;20668;-56
2022/01/28 11:34:24;;;;;;;122.93;65.27;;;;;;;;;;4405944;32;20690;-55
2022/01/28 11:37:02;;;;;;;119.37;66.83;;;;;;;;;;4416285;32;20253;-56
2022/01/28 11:39:41;;;;;;;107.43;64.10;;;;;;;;;;4416554;32;20764;-56
2022/01/28 11:42:13;;;;;;;112.73;64.83;;;;;;;;;;4416029;32;20337;-57
2022/01/28 11:44:50;;;;;;;140.60;70.23;;;;;;;;;;4402708;32;20221;-55
2022/01/28 11:47:26;;;;;;;119.53;62.50;;;;;;;;;;4416011;32;20233;-55
2022/01/28 11:49:56;;;;;;;155.93;79.57;;;;;;;;;;4416614;32;20196;-55
2022/01/28 11:52:25;;;;;;;102.13;58.30;;;;;;;;;;4402054;32;20282;-55
2022/01/28 11:54:52;;;;;;;123.93;68.60;;;;;;;;;;4416310;32;20297;-55
2022/01/28 11:57:19;;;;;;;134.57;74.37;;;;;;;;;;4415966;32;20257;-55
2022/01/28 11:59:46;;;;;;;111.80;61.07;;;;;;;;;;4426230;32;20421;-55
2022/01/28 12:02:13;;;;;;;110.77;55.13;;;;;;;;;;4417260;32;20212;-55
2022/01/28 12:04:40;;;;;;;78.77;44.60;;;;;;;;;;4417783;32;20640;-55
2022/01/28 12:07:14;;;;;;;95.53;49.17;;;;;;;;;;4416076;32;20319;-55
2022/01/28 12:09:45;;;;;;;76.43;41.40;;;;;;;;;;4416493;32;20185;-55
2022/01/28 12:12:12;;;;;;;95.17;50.03;;;;;;;;;;4416450;32;20612;-54
2022/01/28 12:14:50;;;;;;;101.53;56.23;;;;;;;;;;4416417;32;20293;-55
2022/01/28 12:17:31;;;;;;;89.10;45.53;;;;;;;;;;4415829;32;20248;-54
2022/01/28 12:20:15;;;;;;;81.97;45.33;;;;;;;;;;4416271;32;20355;-55
2022/01/28 12:22:59;;;;;;;77.77;42.40;;;;;;;;;;4417067;32;20361;-55
2022/01/28 12:25:37;;;;;;;98.63;50.60;;;;;;;;;;4418666;32;20257;-54
2022/01/28 12:28:22;;;;;;;80.03;43.30;;;;;;;;;;4418660;32;20272;-54
2022/01/28 12:30:50;;;;;;;75.03;39.27;;;;;;;;;;4418748;32;20217;-56
2022/01/28 12:33:22;;;;;;;55.27;25.37;;;;;;;;;;4418748;32;20248;-55
2022/01/28 12:35:50;;;;;;;47.13;22.83;;;;;;;;;;4418835;32;20276;-56
2022/01/28 12:38:21;;;;;;;56.97;32.63;;;;;;;;;;4418623;32;20617;-54
2022/01/28 12:40:50;;;;;;;59.90;34.33;;;;;;;;;;4418617;32;20233;-55
2022/01/28 12:43:23;;;;;;;67.23;36.53;;;;;;;;;;4404613;32;20221;-55
2022/01/28 12:45:58;;;;;;;64.90;35.50;;;;;;;;;;4418719;32;20373;-55
2022/01/28 12:48:24;;;;;;;65.90;36.83;;;;;;;;;;4418600;32;20295;-55
2022/01/28 12:50:51;;;;;;;68.67;37.33;;;;;;;;;;4418661;32;20278;-54
2022/01/28 12:53:28;;;;;;;76.13;37.87;;;;;;;;;;4418185;32;20598;-54
2022/01/28 12:55:54;;;;;;;75.83;41.10;;;;;;;;;;4418459;32;20623;-55
2022/01/28 12:58:33;;;;;;;72.90;41.43;;;;;;;;;;4418464;32;20708;-55
2022/01/28 13:01:07;;;;;;;60.67;34.40;;;;;;;;;;4418208;32;20654;-55
2022/01/28 13:03:37;;;;;;;80.90;41.43;;;;;;;;;;4404430;32;20249;-54
2022/01/28 13:09:01;;;;;;;81.20;42.87;;;;;;;;;;4418239;32;20601;-55
2022/01/28 13:11:27;;;;;;;118.73;56.37;;;;;;;;;;4418334;32;20291;-57
2022/01/28 13:13:55;;;;;;;93.70;51.77;;;;;;;;;;4417994;32;20237;-54
2022/01/28 13:16:35;;;;;;;106.73;60.30;;;;;;;;;;4418094;32;20259;-55
2022/01/28 13:19:03;;;;;;;125.20;65.37;;;;;;;;;;4418206;32;20209;-55
2022/01/28 13:21:28;;;;;;;118.63;64.40;;;;;;;;;;4417887;32;20589;-55
2022/01/28 13:24:16;;;;;;;144.30;72.73;;;;;;;;;;4404015;32;20767;-56
2022/01/28 13:27:02;;;;;;;134.87;70.17;;;;;;;;;;4417746;32;20213;-55
2022/01/28 13:29:33;;;;;;;151.97;74.70;;;;;;;;;;4417930;32;20205;-56
2022/01/28 13:32:08;;;;;;;158.33;79.83;;;;;;;;;;4417630;32;20702;-54
2022/01/28 13:34:46;;;;;;;166.00;89.40;;;;;;;;;;4403540;32;20275;-56
2022/01/28 13:37:12;;;;;;;157.17;82.30;;;;;;;;;;4417444;32;20217;-55
2022/01/28 13:39:43;;;;;;;170.07;88.17;;;;;;;;;;4403800;32;20551;-55
2022/01/28 13:42:12;;;;;;;174.90;83.00;;;;;;;;;;4417638;32;20240;-55
2022/01/28 13:44:39;;;;;;;156.47;84.17;;;;;;;;;;4417536;32;20197;-54
2022/01/28 13:47:05;;;;;;;170.23;95.10;;;;;;;;;;4417219;32;20221;-55
2022/01/28 13:49:35;;;;;;;177.33;91.23;;;;;;;;;;4417551;32;20276;-57
2022/01/28 13:52:16;;;;;;;154.20;88.37;;;;;;;;;;4417365;32;20220;-55
2022/01/28 13:54:42;;;;;;;171.87;86.83;;;;;;;;;;4417532;32;20300;-56
2022/01/28 13:57:09;;;;;;;123.47;67.73;;;;;;;;;;4417111;32;20546;-56
2022/01/28 13:59:37;;;;;;;120.47;60.80;;;;;;;;;;4417010;32;20209;-55
2022/01/28 14:02:03;;;;;;;57.43;33.13;;;;;;;;;;4416921;32;20266;-55
2022/01/28 14:04:35;;;;;;;79.00;39.93;;;;;;;;;;4417017;32;20325;-56
2022/01/28 14:07:14;;;;;;;38.97;23.43;;;;;;;;;;4417223;32;20240;-55
2022/01/28 14:09:45;;;;;;;15.03;10.90;;;;;;;;;;4417590;32;20582;-55
2022/01/28 14:12:43;;;;;;;16.33;9.00;;;;;;;;;;4417297;32;20244;-56
2022/01/28 14:15:28;;;;;;;6.17;4.40;;;;;;;;;;4416792;32;20676;-54
2022/01/28 14:17:55;;;;;;;9.47;4.43;;;;;;;;;;4416102;32;20331;-56
2022/01/28 14:20:20;;;;;;;6.83;4.80;;;;;;;;;;4416925;32;20680;-54
2022/01/28 14:22:47;;;;;;;10.53;4.80;;;;;;;;;;4429793;32;20275;-55
2022/01/28 14:25:12;;;;;;;4.50;3.13;;;;;;;;;;4432104;32;20276;-55
2022/01/28 14:30:05;;;;;;;11.53;6.80;;;;;;;;;;4431922;32;20363;-55
2022/01/28 14:32:32;;;;;;;5.70;3.83;;;;;;;;;;4432609;32;20219;-55
2022/01/28 14:34:57;;;;;;;8.23;5.87;;;;;;;;;;4432246;32;20232;-56
2022/01/28 14:37:27;;;;;;;7.20;5.10;;;;;;;;;;4431909;32;20517;-56
2022/01/28 14:39:53;;;;;;;4.67;3.23;;;;;;;;;;4432191;32;20201;-56
2022/01/28 14:42:18;;;;;;;7.57;4.23;;;;;;;;;;4431857;32;20244;-55
2022/01/28 14:44:47;;;;;;;4.07;3.10;;;;;;;;;;4432358;32;20287;-57
2022/01/28 14:47:17;;;;;;;12.97;6.43;;;;;;;;;;4431084;32;20435;-57
2022/01/28 14:49:43;;;;;;;10.47;4.60;;;;;;;;;;4431922;32;20205;-56
2022/01/28 14:52:14;;;;;;;6.40;4.50;;;;;;;;;;4431796;32;20687;-56
2022/01/28 14:54:39;;;;;;;12.77;5.40;;;;;;;;;;4432151;32;20201;-56
2022/01/28 14:57:10;;;;;;;25.10;11.70;;;;;;;;;;4431900;32;20333;-55
2022/01/28 14:59:40;;;;;;;25.50;8.67;;;;;;;;;;4432019;32;20225;-55
2022/01/28 15:02:18;;;;;;;22.47;12.60;;;;;;;;;;4432135;32;20302;-56
2022/01/28 15:04:44;;;;;;;11.87;7.87;;;;;;;;;;4417321;32;20382;-55
2022/01/28 15:07:09;;;;;;;10.43;6.47;;;;;;;;;;4416617;32;20225;-55
2022/01/28 15:09:40;;;;;;;13.50;9.87;;;;;;;;;;4416464;32;20579;-56
2022/01/28 15:12:10;;;;;;;14.47;7.10;;;;;;;;;;4416741;32;20243;-55
2022/01/28 15:14:36;;;;;;;10.33;6.67;;;;;;;;;;4415219;32;20265;-56
2022/01/28 15:17:03;;;;;;;14.23;8.13;;;;;;;;;;4416539;32;20283;-55
2022/01/28 15:19:28;;;;;;;16.40;10.17;;;;;;;;;;4431767;32;20229;-56
2022/01/28 15:21:54;;;;;;;17.07;9.17;;;;;;;;;;4417691;32;20306;-56
2022/01/28 15:24:22;;;;;;;18.47;9.60;;;;;;;;;;4417287;32;20368;-55
2022/01/28 15:26:48;;;;;;;14.97;6.73;;;;;;;;;;4431623;32;20247;-56
2022/01/28 15:34:56;;;;;;;20.20;9.73;;;;;;;;;;4431944;32;20239;-55
2022/01/28 15:37:22;;;;;;;16.07;9.43;;;;;;;;;;4431451;32;20241;-55
2022/01/28 15:39:47;;;;;;;16.17;10.03;;;;;;;;;;4417464;32;20308;-57
2022/01/28 15:42:13;;;;;;;11.87;6.73;;;;;;;;;;4417737;32;20247;-56
2022/01/28 15:44:40;;;;;;;27.27;12.43;;;;;;;;;;4430726;32;20350;-56
2022/01/28 15:47:10;;;;;;;18.73;10.80;;;;;;;;;;4431242;32;20233;-54
2022/01/28 15:49:36;;;;;;;20.93;10.97;;;;;;;;;;4431521;32;20194;-55
2022/01/28 15:52:02;;;;;;;20.23;11.13;;;;;;;;;;4431427;32;20269;-54
2022/01/28 15:54:27;;;;;;;17.83;9.43;;;;;;;;;;4431047;32;20306;-56